Time;durP1;ratioP1;P1;durP2;ratioP2;P2;SDS_P1;SDS_P2;PMS_P1;PMS_P2;Temp;Humidity;BMP_temperature;BMP_pressure;BME280_temperature;BME280_humidity;BME280_pressure;Samples;Min_cycle;Max_cycle;Signal;HPM_P1;HPM_P2
2022/04/23 00:02:25;;;;;;;16.15;7.63;;;11.00;99.90;;;;;;6183133;23;20021;-76
2022/04/23 00:04:55;;;;;;;15.25;7.13;;;11.10;99.90;;;;;;6182799;23;20033;-76
2022/04/23 00:07:22;;;;;;;12.13;6.88;;;11.00;99.90;;;;;;6181585;23;20476;-76
2022/04/23 00:09:48;;;;;;;12.77;6.95;;;11.10;99.90;;;;;;6181208;23;20096;-75
2022/04/23 00:12:26;;;;;;;14.00;8.45;;;11.00;99.90;;;;;;6228784;23;20017;-76
2022/04/23 00:14:53;;;;;;;13.25;6.25;;;11.00;99.90;;;;;;6181172;23;20028;-75
2022/04/23 00:17:19;;;;;;;15.60;7.90;;;11.00;99.90;;;;;;6181662;23;20100;-76
2022/04/23 00:19:46;;;;;;;12.30;7.20;;;11.00;99.90;;;;;;6232608;23;20029;-76
2022/04/23 00:22:16;;;;;;;15.10;7.55;;;11.00;99.90;;;;;;6181842;23;20032;-75
2022/04/23 00:24:42;;;;;;;15.02;8.10;;;10.90;99.90;;;;;;6181661;23;20033;-75
2022/04/23 00:27:08;;;;;;;16.55;8.63;;;10.90;99.90;;;;;;6206736;23;20023;-75
2022/04/23 00:29:39;;;;;;;11.20;7.22;;;10.90;99.90;;;;;;6183357;23;20025;-75
2022/04/23 00:32:06;;;;;;;17.02;8.13;;;10.90;99.90;;;;;;6183538;23;20021;-77
2022/04/23 00:34:34;;;;;;;15.07;7.13;;;10.80;99.90;;;;;;6180394;23;20028;-74
2022/04/23 00:37:00;;;;;;;14.02;7.97;;;10.80;99.90;;;;;;6181200;23;20150;-76
2022/04/23 00:39:27;;;;;;;19.92;8.73;;;10.80;99.90;;;;;;6181329;23;20104;-77
2022/04/23 00:41:59;;;;;;;17.65;8.23;;;10.70;99.90;;;;;;6182734;23;20059;-75
2022/04/23 00:44:28;;;;;;;17.30;7.55;;;10.70;99.90;;;;;;6204773;23;20159;-74
2022/04/23 00:46:57;;;;;;;12.85;7.68;;;10.70;99.90;;;;;;6205817;23;20024;-75
2022/04/23 00:49:23;;;;;;;13.98;7.88;;;10.60;99.90;;;;;;6206219;23;20448;-75
2022/04/23 00:51:50;;;;;;;18.08;8.77;;;10.60;99.90;;;;;;6181086;23;20056;-76
2022/04/23 00:54:35;;;;;;;15.90;7.97;;;10.60;99.90;;;;;;6181338;23;20053;-76
2022/04/23 00:57:05;;;;;;;15.60;7.47;;;10.50;99.90;;;;;;6180906;23;20025;-76
2022/04/23 00:59:31;;;;;;;17.35;8.00;;;10.50;99.90;;;;;;6181691;23;20017;-75
2022/04/23 01:01:58;;;;;;;14.10;8.40;;;10.40;99.90;;;;;;6181694;23;20027;-75
2022/04/23 01:04:26;;;;;;;16.08;8.10;;;10.40;99.90;;;;;;6180961;23;20079;-75
2022/04/23 01:06:51;;;;;;;15.75;8.60;;;10.40;99.90;;;;;;6231578;23;20025;-75
2022/04/23 01:09:19;;;;;;;14.35;7.65;;;10.30;99.90;;;;;;6185168;23;20037;-75
2022/04/23 01:11:59;;;;;;;17.17;9.55;;;10.30;99.90;;;;;;6186237;23;20024;-76
2022/04/23 01:14:26;;;;;;;15.57;9.05;;;10.30;99.90;;;;;;6186263;23;20079;-76
2022/04/23 01:16:52;;;;;;;16.48;10.10;;;10.20;99.90;;;;;;6187807;23;20024;-75
2022/04/23 01:19:22;;;;;;;14.80;9.00;;;10.30;99.90;;;;;;6214564;23;20465;-78
2022/04/23 01:21:49;;;;;;;18.83;8.90;;;10.20;99.90;;;;;;6187787;23;20071;-74
2022/04/23 01:24:16;;;;;;;14.60;8.80;;;10.20;99.90;;;;;;6186970;23;20035;-75
2022/04/23 01:26:41;;;;;;;14.23;8.73;;;10.20;99.90;;;;;;6162862;23;20056;-76
2022/04/23 01:29:07;;;;;;;20.60;10.13;;;10.20;99.90;;;;;;6212369;23;20028;-76
2022/04/23 01:31:33;;;;;;;16.98;9.13;;;10.20;99.90;;;;;;6187554;23;20017;-76
2022/04/23 01:33:59;;;;;;;15.48;8.80;;;10.20;99.90;;;;;;6187447;23;20025;-74
2022/04/23 01:36:25;;;;;;;14.82;8.98;;;10.20;99.90;;;;;;6238042;23;20032;-75
2022/04/23 01:39:01;;;;;;;15.23;9.10;;;10.20;99.90;;;;;;6162622;23;20063;-75
2022/04/23 01:41:27;;;;;;;14.93;9.57;;;10.20;99.90;;;;;;6162725;23;20348;-75
2022/04/23 01:43:57;;;;;;;16.42;9.82;;;10.20;99.90;;;;;;6187329;23;20103;-77
2022/04/23 01:46:26;;;;;;;18.38;10.90;;;10.30;99.90;;;;;;6162472;23;20400;-75
2022/04/23 01:48:51;;;;;;;20.63;10.25;;;10.20;99.90;;;;;;6238160;23;20078;-75
2022/04/23 01:51:19;;;;;;;18.17;11.45;;;10.30;99.90;;;;;;6163054;23;20025;-75
2022/04/23 01:53:45;;;;;;;17.13;10.27;;;10.30;99.90;;;;;;6187801;23;20052;-74
2022/04/23 01:56:14;;;;;;;16.25;9.90;;;10.20;99.90;;;;;;6214608;23;20054;-76
2022/04/23 01:58:40;;;;;;;18.52;10.70;;;10.30;99.90;;;;;;6212354;23;20535;-77
2022/04/23 02:01:07;;;;;;;19.55;10.85;;;10.30;99.90;;;;;;6237822;23;20330;-75
2022/04/23 02:03:34;;;;;;;19.55;10.40;;;10.30;99.90;;;;;;6212509;23;20020;-77
2022/04/23 02:06:00;;;;;;;17.02;10.60;;;10.30;99.90;;;;;;6186397;23;20023;-75
2022/04/23 02:08:26;;;;;;;18.67;10.30;;;10.30;99.90;;;;;;6162357;23;20052;-75
2022/04/23 02:10:54;;;;;;;17.42;11.63;;;10.30;99.90;;;;;;6207125;23;20473;-75
2022/04/23 02:13:20;;;;;;;18.63;11.07;;;10.30;99.90;;;;;;6207556;23;20032;-76
2022/04/23 02:15:46;;;;;;;21.75;11.90;;;10.30;99.90;;;;;;6157648;23;20025;-76
2022/04/23 02:18:16;;;;;;;18.25;10.95;;;10.20;99.90;;;;;;6182194;23;20024;-75
2022/04/23 02:20:58;;;;;;;19.27;11.15;;;10.20;99.90;;;;;;6182443;23;20068;-75
2022/04/23 02:23:24;;;;;;;18.05;10.48;;;10.20;99.90;;;;;;6182599;23;20457;-75
2022/04/23 02:25:49;;;;;;;18.35;10.75;;;10.20;99.90;;;;;;6184043;23;20100;-75
2022/04/23 02:28:18;;;;;;;16.05;10.82;;;10.20;99.90;;;;;;6184044;23;20099;-75
2022/04/23 02:30:47;;;;;;;18.85;10.57;;;10.10;99.90;;;;;;6184305;23;20083;-75
2022/04/23 02:33:14;;;;;;;18.90;10.27;;;10.10;99.90;;;;;;6182251;23;20021;-75
2022/04/23 02:35:40;;;;;;;18.83;10.30;;;10.10;99.90;;;;;;6182359;23;20028;-75
2022/04/23 02:38:09;;;;;;;17.17;10.27;;;10.10;99.90;;;;;;6206942;23;20017;-75
2022/04/23 02:40:40;;;;;;;21.38;11.52;;;10.00;99.90;;;;;;6182271;23;20029;-79
2022/04/23 02:43:12;;;;;;;18.65;10.57;;;10.00;99.90;;;;;;6205814;23;20024;-75
2022/04/23 02:45:39;;;;;;;18.52;9.68;;;10.00;99.90;;;;;;6157334;23;20748;-76
2022/04/23 02:48:10;;;;;;;15.55;9.63;;;10.00;99.90;;;;;;6206103;23;20464;-76
2022/04/23 02:50:40;;;;;;;17.48;10.23;;;10.00;99.90;;;;;;6182545;23;20028;-77
2022/04/23 02:53:07;;;;;;;18.80;10.65;;;9.90;99.90;;;;;;6230822;23;20108;-75
2022/04/23 02:55:39;;;;;;;18.10;10.48;;;9.90;99.90;;;;;;6207105;23;20028;-75
2022/04/23 02:58:09;;;;;;;19.58;10.50;;;9.80;99.90;;;;;;6157402;23;20029;-75
2022/04/23 03:00:43;;;;;;;18.73;10.93;;;9.80;99.90;;;;;;6180300;23;20067;-75
2022/04/23 03:03:10;;;;;;;17.00;9.23;;;9.70;99.90;;;;;;6182002;23;20021;-76
2022/04/23 03:05:42;;;;;;;16.67;9.98;;;9.70;99.90;;;;;;6182233;23;20053;-75
2022/04/23 03:08:30;;;;;;;16.17;10.48;;;9.70;99.90;;;;;;6205517;23;20021;-75
2022/04/23 03:10:57;;;;;;;15.05;9.07;;;9.60;99.90;;;;;;6125737;23;20101;-76
2022/04/23 03:13:24;;;;;;;19.50;10.20;;;9.60;99.90;;;;;;6126247;23;20032;-75
2022/04/23 03:15:50;;;;;;;15.77;9.88;;;9.60;99.90;;;;;;6150900;23;20022;-75
2022/04/23 03:18:16;;;;;;;20.48;9.93;;;9.50;99.90;;;;;;6102158;23;20343;-77
2022/04/23 03:20:44;;;;;;;20.27;10.45;;;9.60;99.90;;;;;;6101892;23;20025;-76
2022/04/23 03:23:11;;;;;;;15.77;9.93;;;9.50;99.90;;;;;;6126534;23;20033;-76
2022/04/23 03:25:38;;;;;;;17.58;9.98;;;9.50;99.90;;;;;;6101938;23;20021;-76
2022/04/23 03:28:04;;;;;;;15.88;9.82;;;9.50;99.90;;;;;;6150732;23;20396;-75
2022/04/23 03:30:30;;;;;;;16.13;9.43;;;9.50;99.90;;;;;;6126187;23;20029;-75
2022/04/23 03:32:58;;;;;;;15.48;10.00;;;9.50;99.90;;;;;;6101777;23;20334;-75
2022/04/23 03:35:26;;;;;;;16.67;9.57;;;9.50;99.90;;;;;;6150596;23;20063;-75
2022/04/23 03:37:55;;;;;;;15.43;10.20;;;9.50;99.90;;;;;;6150381;23;20350;-75
2022/04/23 03:40:21;;;;;;;13.70;9.68;;;9.40;99.90;;;;;;6125141;23;20076;-75
2022/04/23 03:42:57;;;;;;;15.27;9.55;;;9.40;99.90;;;;;;6175338;23;20040;-75
2022/04/23 03:45:25;;;;;;;15.18;10.43;;;9.40;99.90;;;;;;6101580;23;20021;-75
2022/04/23 03:47:54;;;;;;;15.02;9.18;;;9.40;99.90;;;;;;6150332;23;20017;-75
2022/04/23 03:50:24;;;;;;;14.25;10.35;;;9.40;99.90;;;;;;6164498;23;20040;-74
2022/04/23 03:52:50;;;;;;;15.77;9.82;;;9.40;99.90;;;;;;6149912;23;20079;-75
2022/04/23 03:55:17;;;;;;;17.00;10.80;;;9.40;99.90;;;;;;6125929;23;20441;-75
2022/04/23 03:57:54;;;;;;;15.45;9.73;;;9.30;99.90;;;;;;6175836;23;20018;-74
2022/04/23 04:00:21;;;;;;;18.70;10.05;;;9.40;99.90;;;;;;6108858;23;20335;-75
2022/04/23 04:02:47;;;;;;;16.17;9.80;;;9.30;99.90;;;;;;6187190;23;20020;-74
2022/04/23 04:05:36;;;;;;;16.35;10.55;;;9.30;99.90;;;;;;6211869;23;20017;-76
2022/04/23 04:08:02;;;;;;;16.77;10.38;;;9.40;99.90;;;;;;6097137;23;20033;-75
2022/04/23 04:10:28;;;;;;;17.88;10.90;;;9.40;99.90;;;;;;6121721;23;20026;-75
2022/04/23 04:13:03;;;;;;;17.15;11.43;;;9.40;99.90;;;;;;6144928;23;20026;-75
2022/04/23 04:15:30;;;;;;;19.08;11.10;;;9.40;99.90;;;;;;6097986;23;20029;-76
2022/04/23 04:18:01;;;;;;;21.58;10.98;;;9.40;99.90;;;;;;6100283;23;20032;-75
2022/04/23 04:20:27;;;;;;;18.63;11.20;;;9.50;99.90;;;;;;6100939;23;20022;-76
2022/04/23 04:22:54;;;;;;;16.90;11.70;;;9.50;99.90;;;;;;6126898;23;20354;-75
2022/04/23 04:25:20;;;;;;;16.00;10.07;;;9.50;99.90;;;;;;6127886;23;20549;-74
2022/04/23 04:27:46;;;;;;;18.08;11.60;;;9.50;99.90;;;;;;6148888;23;20034;-74
2022/04/23 04:30:12;;;;;;;19.35;11.40;;;9.50;99.90;;;;;;6144609;23;20026;-76
2022/04/23 04:32:41;;;;;;;19.15;11.95;;;9.50;99.90;;;;;;6145267;23;20030;-75
2022/04/23 04:35:09;;;;;;;18.10;11.05;;;9.50;99.90;;;;;;6071852;23;20025;-75
2022/04/23 04:37:45;;;;;;;16.65;11.10;;;9.50;99.90;;;;;;6143515;23;20105;-74
2022/04/23 04:40:12;;;;;;;18.25;11.32;;;9.40;99.90;;;;;;6234933;23;20024;-76
2022/04/23 04:42:41;;;;;;;18.65;11.15;;;9.40;99.90;;;;;;6186254;23;20479;-76
2022/04/23 04:45:08;;;;;;;16.15;10.57;;;9.40;99.90;;;;;;6211383;23;20067;-75
2022/04/23 04:47:45;;;;;;;17.55;12.23;;;9.40;99.90;;;;;;6185734;23;20111;-75
2022/04/23 04:50:11;;;;;;;16.17;10.82;;;9.40;99.90;;;;;;6162776;23;20111;-76
2022/04/23 04:52:37;;;;;;;18.25;11.05;;;9.40;99.90;;;;;;6239140;23;20070;-77
2022/04/23 04:55:04;;;;;;;18.65;10.10;;;9.30;99.90;;;;;;6213684;23;20025;-77
2022/04/23 04:57:32;;;;;;;17.95;10.63;;;9.30;99.90;;;;;;6187896;23;20108;-75
2022/04/23 04:59:59;;;;;;;17.55;10.57;;;9.30;99.90;;;;;;6187613;23;20469;-77
2022/04/23 05:02:26;;;;;;;15.00;10.38;;;9.30;99.90;;;;;;6188559;23;20024;-76
2022/04/23 05:04:51;;;;;;;14.98;10.70;;;9.40;99.90;;;;;;6163416;23;20047;-75
2022/04/23 05:07:22;;;;;;;16.05;10.32;;;9.40;99.90;;;;;;6215048;23;20024;-75
2022/04/23 05:09:49;;;;;;;16.33;10.23;;;9.40;99.90;;;;;;6163243;23;20035;-75
2022/04/23 05:12:15;;;;;;;20.42;10.82;;;9.40;99.90;;;;;;6187686;23;20025;-76
2022/04/23 05:14:42;;;;;;;15.07;10.23;;;9.50;99.90;;;;;;6188518;23;20334;-75
2022/04/23 05:17:09;;;;;;;17.33;9.88;;;9.50;99.90;;;;;;6213391;23;20479;-76
2022/04/23 05:19:38;;;;;;;14.30;9.65;;;9.60;99.90;;;;;;6188077;23;20039;-77
2022/04/23 05:22:03;;;;;;;20.10;10.73;;;9.60;99.90;;;;;;6213570;22;20024;-78
2022/04/23 05:24:29;;;;;;;16.80;10.80;;;9.60;99.90;;;;;;6187852;23;20028;-74
2022/04/23 05:26:57;;;;;;;15.23;10.13;;;9.70;99.90;;;;;;6238311;23;20352;-75
2022/04/23 05:29:23;;;;;;;21.50;11.57;;;9.70;99.90;;;;;;6187683;23;20025;-76
2022/04/23 05:31:51;;;;;;;16.42;11.02;;;9.70;99.90;;;;;;6212844;23;20110;-76
2022/04/23 05:34:28;;;;;;;18.60;10.23;;;9.80;99.90;;;;;;6214815;23;20031;-75
2022/04/23 05:37:12;;;;;;;16.98;10.13;;;9.90;99.90;;;;;;6214589;23;20036;-77
2022/04/23 05:39:38;;;;;;;18.23;10.90;;;9.90;99.90;;;;;;6212661;23;20465;-76
2022/04/23 05:42:05;;;;;;;13.02;9.48;;;10.00;99.90;;;;;;6214913;23;20032;-75
2022/04/23 05:44:32;;;;;;;13.95;10.27;;;10.10;99.90;;;;;;6212924;23;20510;-76
2022/04/23 05:46:59;;;;;;;16.60;10.25;;;10.10;99.90;;;;;;6212604;23;20082;-77
2022/04/23 05:49:30;;;;;;;19.00;10.40;;;10.10;99.90;;;;;;6213219;23;20091;-76
2022/04/23 05:51:55;;;;;;;13.93;10.20;;;10.20;99.90;;;;;;6187655;23;20024;-77
2022/04/23 05:54:21;;;;;;;17.17;9.82;;;10.20;99.90;;;;;;6187633;23;20043;-78
2022/04/23 05:56:47;;;;;;;12.80;9.43;;;10.30;99.90;;;;;;6188711;23;20016;-75
2022/04/23 05:59:13;;;;;;;14.38;9.45;;;10.40;99.90;;;;;;6163985;23;20031;-77
2022/04/23 06:01:39;;;;;;;13.73;8.90;;;10.50;99.90;;;;;;6162182;23;20056;-77
2022/04/23 06:04:05;;;;;;;15.80;8.90;;;10.50;99.90;;;;;;6163011;23;20083;-76
2022/04/23 06:06:30;;;;;;;15.82;10.00;;;10.60;99.90;;;;;;6212705;23;20476;-77
2022/04/23 06:08:57;;;;;;;12.38;8.95;;;10.60;99.90;;;;;;6187402;23;20099;-76
2022/04/23 06:11:22;;;;;;;13.05;8.48;;;10.70;99.90;;;;;;6187350;23;20059;-76
2022/04/23 06:13:51;;;;;;;14.27;9.98;;;10.80;99.90;;;;;;6213991;23;20027;-78
2022/04/23 06:16:17;;;;;;;12.32;8.68;;;10.90;99.90;;;;;;6161588;23;20410;-75
2022/04/23 06:18:44;;;;;;;18.77;8.77;;;11.00;99.90;;;;;;6237941;23;20052;-76
2022/04/23 06:21:10;;;;;;;13.25;9.45;;;11.10;99.90;;;;;;6186768;23;20021;-77
2022/04/23 06:23:38;;;;;;;15.48;9.32;;;11.20;99.90;;;;;;6238214;23;20087;-76
2022/04/23 06:26:04;;;;;;;13.25;9.40;;;11.20;99.90;;;;;;6212636;23;20086;-79
2022/04/23 06:28:30;;;;;;;16.60;9.73;;;11.30;99.90;;;;;;6187003;23;20531;-78
2022/04/23 06:30:57;;;;;;;14.00;9.35;;;11.40;99.90;;;;;;6163193;23;20036;-78
2022/04/23 06:33:24;;;;;;;15.40;10.05;;;11.50;99.90;;;;;;6187524;23;20368;-76
2022/04/23 06:35:50;;;;;;;13.93;8.82;;;11.60;99.90;;;;;;6162492;23;20028;-78
2022/04/23 06:38:18;;;;;;;12.85;9.40;;;11.70;99.90;;;;;;6162850;23;20151;-77
2022/04/23 06:41:04;;;;;;;13.68;9.38;;;11.80;99.90;;;;;;6214206;23;20086;-75
2022/04/23 06:43:30;;;;;;;16.02;10.00;;;11.90;99.90;;;;;;6212853;23;20114;-77
2022/04/23 06:45:59;;;;;;;14.63;9.35;;;12.00;99.90;;;;;;6238292;23;20375;-76
2022/04/23 06:48:26;;;;;;;11.60;8.43;;;12.10;99.90;;;;;;6186580;23;20095;-75
2022/04/23 06:50:53;;;;;;;16.63;10.38;;;12.10;99.90;;;;;;6212367;23;20025;-76
2022/04/23 06:53:19;;;;;;;18.02;10.10;;;12.30;99.90;;;;;;6214490;23;20024;-78
2022/04/23 06:55:44;;;;;;;18.77;10.15;;;12.30;99.90;;;;;;6187530;23;20033;-78
2022/04/23 06:58:12;;;;;;;12.77;9.88;;;12.40;99.90;;;;;;6187189;23;20028;-77
2022/04/23 07:00:48;;;;;;;15.93;10.48;;;12.50;99.90;;;;;;6187058;23;20491;-77
2022/04/23 07:03:20;;;;;;;13.38;9.98;;;12.60;99.90;;;;;;6187220;23;20028;-77
2022/04/23 07:05:47;;;;;;;14.93;9.77;;;12.60;99.90;;;;;;6214542;23;20024;-77
2022/04/23 07:08:12;;;;;;;21.45;10.35;;;12.70;99.90;;;;;;6187052;23;20020;-76
2022/04/23 07:10:39;;;;;;;18.48;9.30;;;12.90;99.90;;;;;;6212051;23;20027;-78
2022/04/23 07:13:07;;;;;;;15.25;9.73;;;13.00;99.90;;;;;;6237210;23;20055;-78
2022/04/23 07:15:36;;;;;;;15.88;9.82;;;13.00;99.90;;;;;;6187026;23;20060;-78
2022/04/23 07:18:02;;;;;;;15.48;10.10;;;13.20;99.90;;;;;;6161242;23;20345;-76
2022/04/23 07:20:29;;;;;;;17.35;9.52;;;13.20;99.90;;;;;;6186650;23;20100;-76
2022/04/23 07:25:40;;;;;;;18.30;9.75;;;13.50;99.90;;;;;;6213986;23;20032;-80
2022/04/23 07:28:07;;;;;;;26.70;9.60;;;13.60;99.90;;;;;;6213524;23;20517;-76
2022/04/23 07:30:34;;;;;;;14.98;9.50;;;13.70;99.90;;;;;;6186732;23;20356;-76
2022/04/23 07:33:07;;;;;;;16.42;9.90;;;13.90;99.90;;;;;;6214111;23;20021;-79
2022/04/23 07:38:21;;;;;;;11.75;8.88;;;14.10;99.40;;;;;;6186824;23;20021;-78
2022/04/23 07:40:49;;;;;;;19.13;9.48;;;14.20;99.20;;;;;;6187190;23;20036;-78
2022/04/23 07:43:15;;;;;;;14.35;8.50;;;14.40;98.80;;;;;;6237430;23;20059;-77
2022/04/23 07:45:43;;;;;;;15.43;8.98;;;14.50;98.70;;;;;;6186859;23;20021;-78
2022/04/23 07:48:11;;;;;;;17.02;9.52;;;14.60;98.20;;;;;;6237272;23;20059;-77
2022/04/23 07:50:38;;;;;;;14.73;8.57;;;14.70;97.60;;;;;;6211766;23;20399;-78
2022/04/23 07:53:07;;;;;;;11.23;8.82;;;14.90;97.10;;;;;;6212123;23;20084;-76
2022/04/23 07:55:35;;;;;;;38.80;11.07;;;14.90;97.00;;;;;;6211198;23;20035;-77
2022/04/23 07:58:18;;;;;;;11.48;8.93;;;15.00;96.30;;;;;;6188265;23;20024;-78
2022/04/23 08:00:45;;;;;;;15.18;8.38;;;15.10;95.50;;;;;;6186117;23;20028;-79
2022/04/23 08:03:16;;;;;;;14.20;8.50;;;15.10;95.60;;;;;;6187793;23;20051;-78
2022/04/23 08:05:43;;;;;;;11.57;8.70;;;15.20;95.30;;;;;;6186671;23;20146;-77
2022/04/23 08:08:12;;;;;;;15.30;9.00;;;15.20;95.20;;;;;;6186056;23;20024;-77
2022/04/23 08:10:38;;;;;;;21.17;9.45;;;15.30;95.10;;;;;;6185432;23;20032;-80
2022/04/23 08:13:06;;;;;;;12.52;9.02;;;15.30;94.70;;;;;;6237482;23;20086;-77
2022/04/23 08:15:31;;;;;;;14.23;8.65;;;15.40;94.50;;;;;;6213672;23;20020;-80
2022/04/23 08:18:02;;;;;;;18.50;9.35;;;15.60;94.30;;;;;;6186627;23;20436;-79
2022/04/23 08:20:35;;;;;;;33.05;10.80;;;15.70;94.30;;;;;;6211583;23;20132;-80
2022/04/23 08:23:02;;;;;;;12.00;8.52;;;15.80;93.80;;;;;;6188691;23;20024;-77
2022/04/23 08:25:28;;;;;;;14.55;8.90;;;15.90;93.80;;;;;;6186059;23;20399;-76
2022/04/23 08:30:40;;;;;;;11.75;8.25;;;16.30;93.70;;;;;;6186049;23;20396;-77
2022/04/23 08:33:09;;;;;;;14.55;9.40;;;16.30;92.90;;;;;;6211608;23;20091;-78
2022/04/23 08:35:39;;;;;;;13.20;9.18;;;16.40;92.30;;;;;;6161995;23;20542;-79
2022/04/23 08:38:07;;;;;;;19.38;9.45;;;16.30;92.30;;;;;;6186570;23;20032;-79
2022/04/23 08:40:51;;;;;;;12.95;8.60;;;16.40;92.50;;;;;;6180332;23;20413;-79
2022/04/23 08:43:17;;;;;;;12.10;7.95;;;16.50;92.40;;;;;;6180371;23;20032;-78
2022/04/23 08:45:43;;;;;;;19.80;8.77;;;16.70;92.20;;;;;;6180574;23;20021;-78
2022/04/23 08:48:14;;;;;;;12.80;8.40;;;16.70;91.80;;;;;;6155573;23;20088;-76
2022/04/23 08:50:43;;;;;;;15.07;9.63;;;16.80;91.20;;;;;;6155821;23;20033;-79
2022/04/23 08:53:24;;;;;;;13.55;8.77;;;17.00;91.00;;;;;;6131670;23;20152;-80
2022/04/23 08:55:53;;;;;;;19.00;8.47;;;17.10;91.00;;;;;;6178992;23;20048;-77
2022/04/23 08:58:21;;;;;;;11.85;8.60;;;17.10;90.00;;;;;;6156606;23;20488;-78
2022/04/23 09:00:49;;;;;;;14.63;8.25;;;17.00;88.40;;;;;;6155540;23;20017;-77
2022/04/23 09:03:16;;;;;;;13.00;8.15;;;17.10;88.30;;;;;;6132772;23;20058;-76
2022/04/23 09:05:43;;;;;;;12.45;8.80;;;17.20;87.50;;;;;;6157192;23;20497;-77
2022/04/23 09:08:10;;;;;;;11.30;7.57;;;17.30;87.20;;;;;;6183518;23;20056;-79
2022/04/23 09:10:51;;;;;;;10.90;8.40;;;17.40;87.40;;;;;;6156453;23;20025;-77
2022/04/23 09:13:30;;;;;;;15.23;8.35;;;17.70;88.50;;;;;;6216905;23;20120;-77
2022/04/23 09:24:49;;;;;;;49.13;11.27;;;17.90;74.50;;;;;;6186666;23;20020;-78
2022/04/23 09:27:17;;;;;;;10.75;6.97;;;17.90;71.30;;;;;;6185524;23;20468;-78
2022/04/23 09:30:23;;;;;;;15.20;7.20;;;18.00;73.20;;;;;;6185816;23;20032;-80
2022/04/23 09:32:57;;;;;;;15.52;7.22;;;18.20;67.40;;;;;;6186564;23;20096;-78
2022/04/23 09:35:24;;;;;;;13.50;7.75;;;18.20;68.90;;;;;;6236582;22;20419;-79
2022/04/23 09:38:14;;;;;;;10.63;6.72;;;18.30;69.10;;;;;;6187685;23;20452;-76
2022/04/23 09:40:40;;;;;;;11.57;6.60;;;18.50;69.10;;;;;;6214538;23;20404;-79
2022/04/23 09:43:10;;;;;;;15.50;6.85;;;18.50;67.70;;;;;;6214612;23;20082;-79
2022/04/23 09:45:43;;;;;;;14.40;7.03;;;18.60;65.00;;;;;;6213185;23;20025;-79
2022/04/23 09:48:12;;;;;;;10.95;7.75;;;18.50;62.50;;;;;;6186762;23;20060;-77
2022/04/23 09:50:44;;;;;;;12.85;7.93;;;18.50;60.70;;;;;;6187029;23;20024;-79
2022/04/23 09:53:20;;;;;;;9.40;6.65;;;18.50;61.00;;;;;;6213229;23;20468;-78
2022/04/23 09:55:49;;;;;;;14.35;7.18;;;18.70;62.30;;;;;;6214745;23;20016;-78
2022/04/23 09:58:16;;;;;;;9.88;6.15;;;18.60;62.30;;;;;;6188346;23;20536;-77
2022/04/23 10:00:47;;;;;;;13.13;6.28;;;18.90;62.50;;;;;;6237256;23;20017;-79
2022/04/23 10:03:19;;;;;;;13.07;7.03;;;19.00;58.30;;;;;;6218045;22;20028;-78
2022/04/23 10:05:57;;;;;;;30.58;8.52;;;19.00;58.50;;;;;;6189633;23;20038;-79
2022/04/23 10:08:29;;;;;;;10.77;5.90;;;19.00;55.40;;;;;;6188033;23;20031;-80
2022/04/23 10:11:03;;;;;;;9.77;6.03;;;18.90;55.60;;;;;;6187769;23;20035;-78
2022/04/23 10:13:40;;;;;;;11.80;7.10;;;18.90;55.90;;;;;;6211301;23;20024;-78
2022/04/23 10:16:10;;;;;;;27.33;6.78;;;18.90;57.40;;;;;;6213929;23;20055;-78
2022/04/23 10:18:40;;;;;;;13.85;5.95;;;19.00;55.90;;;;;;6187141;23;20025;-78
2022/04/23 10:21:10;;;;;;;14.98;6.43;;;19.20;55.30;;;;;;6211924;23;20020;-77
2022/04/23 10:23:55;;;;;;;11.30;6.03;;;19.40;54.40;;;;;;6187674;23;20039;-79
2022/04/23 10:26:38;;;;;;;14.00;5.83;;;19.50;53.00;;;;;;6212093;23;20028;-76
2022/04/23 10:29:14;;;;;;;12.05;6.45;;;19.30;52.40;;;;;;6212160;23;20395;-78
2022/04/23 10:31:44;;;;;;;9.68;5.40;;;19.40;51.90;;;;;;6187652;23;20021;-79
2022/04/23 10:34:31;;;;;;;9.60;6.20;;;19.50;51.90;;;;;;6237899;23;20036;-79
2022/04/23 10:37:16;;;;;;;11.70;5.68;;;19.60;51.50;;;;;;6238004;23;20345;-77
2022/04/23 10:39:52;;;;;;;9.93;5.93;;;19.70;50.70;;;;;;6187655;23;20024;-80
2022/04/23 10:42:24;;;;;;;9.27;6.05;;;19.90;52.30;;;;;;6213542;23;20471;-77
2022/04/23 10:44:51;;;;;;;8.55;5.82;;;20.00;50.50;;;;;;6187033;23;20032;-75
2022/04/23 10:47:32;;;;;;;9.50;6.03;;;20.30;50.60;;;;;;6237002;23;20063;-77
2022/04/23 10:50:19;;;;;;;11.68;5.95;;;20.50;50.30;;;;;;6186662;23;20032;-78
2022/04/23 10:52:47;;;;;;;11.02;6.63;;;20.60;51.00;;;;;;6213744;23;20033;-76
2022/04/23 10:55:14;;;;;;;10.52;7.05;;;20.80;51.20;;;;;;6213960;23;20043;-76
2022/04/23 10:57:47;;;;;;;11.27;6.72;;;20.90;51.30;;;;;;6186964;23;20024;-77
2022/04/23 11:00:16;;;;;;;11.38;7.72;;;20.80;51.50;;;;;;6186752;23;20021;-79
2022/04/23 11:02:47;;;;;;;17.67;7.63;;;21.10;53.20;;;;;;6213403;23;20534;-77
2022/04/23 11:13:48;;;;;;;9.43;6.07;;;21.60;49.50;;;;;;6185339;23;20114;-78
2022/04/23 11:16:19;;;;;;;13.13;7.15;;;21.60;49.20;;;;;;6213151;23;20025;-77
2022/04/23 11:18:48;;;;;;;9.90;7.40;;;21.50;49.30;;;;;;6212488;23;20028;-76
2022/04/23 11:21:27;;;;;;;14.95;7.97;;;21.80;48.60;;;;;;6213834;23;20017;-77
2022/04/23 11:23:58;;;;;;;9.55;6.75;;;21.90;49.30;;;;;;6237213;23;20528;-78
2022/04/23 11:26:46;;;;;;;15.35;7.25;;;22.20;48.00;;;;;;6186229;23;20020;-78
2022/04/23 11:29:15;;;;;;;9.75;7.55;;;22.10;46.90;;;;;;6186538;23;20457;-78
2022/04/23 11:31:59;;;;;;;11.70;6.07;;;22.10;47.50;;;;;;6233296;23;20399;-76
2022/04/23 11:34:29;;;;;;;13.00;6.90;;;22.30;48.20;;;;;;6186478;23;20056;-78
2022/04/23 11:36:58;;;;;;;10.30;6.00;;;22.50;47.70;;;;;;6235941;23;20028;-76
2022/04/23 11:39:28;;;;;;;18.13;6.30;;;22.90;48.20;;;;;;6186964;23;20119;-78
2022/04/23 11:42:01;;;;;;;12.80;6.47;;;23.00;46.60;;;;;;6163161;23;20020;-79
2022/04/23 11:44:48;;;;;;;10.40;7.30;;;22.90;45.00;;;;;;6210127;23;20112;-78
2022/04/23 11:47:27;;;;;;;23.33;8.20;;;22.50;43.60;;;;;;6186520;23;20392;-78
2022/04/23 11:49:53;;;;;;;9.13;5.80;;;22.40;44.50;;;;;;6158267;23;20032;-77
2022/04/23 11:52:19;;;;;;;11.70;6.85;;;22.70;45.00;;;;;;6213853;23;20020;-76
2022/04/23 11:54:48;;;;;;;12.32;6.28;;;22.80;44.30;;;;;;6187578;23;20023;-79
2022/04/23 11:57:16;;;;;;;12.13;5.88;;;22.90;43.80;;;;;;6210035;23;20059;-79
2022/04/23 11:59:49;;;;;;;15.57;5.70;;;23.00;43.10;;;;;;6211313;23;20039;-79
2022/04/23 12:02:25;;;;;;;10.15;5.13;;;22.80;41.00;;;;;;6235773;23;20638;-78
2022/04/23 12:04:54;;;;;;;10.25;5.38;;;23.10;42.30;;;;;;6186368;23;20024;-80
2022/04/23 12:07:33;;;;;;;9.27;5.25;;;23.40;42.30;;;;;;6189023;23;20059;-77
2022/04/23 12:10:01;;;;;;;11.25;4.75;;;23.70;42.50;;;;;;6212983;23;20077;-79
2022/04/23 12:12:31;;;;;;;14.50;6.78;;;23.80;41.90;;;;;;6185805;23;20360;-79
2022/04/23 12:14:58;;;;;;;10.30;5.68;;;23.70;40.30;;;;;;6185944;23;20027;-78
2022/04/23 12:17:29;;;;;;;8.43;4.60;;;24.00;40.40;;;;;;6211722;23;20028;-77
2022/04/23 12:20:00;;;;;;;8.63;4.40;;;24.00;40.30;;;;;;6212841;23;20498;-78
2022/04/23 12:22:32;;;;;;;6.35;3.65;;;24.20;40.40;;;;;;6211742;23;20028;-78
2022/04/23 12:25:07;;;;;;;6.68;3.85;;;24.60;40.30;;;;;;6186121;23;20020;-77
2022/04/23 12:28:02;;;;;;;7.68;3.72;;;24.40;36.50;;;;;;6213555;23;20032;-78
2022/04/23 12:41:58;;;;;;;5.28;3.53;;;25.30;40.00;;;;;;6235792;23;20074;-76
2022/04/23 12:44:32;;;;;;;12.52;7.07;;;25.50;41.00;;;;;;6185793;23;20043;-77
2022/04/23 12:47:00;;;;;;;11.35;3.42;;;25.70;43.40;;;;;;6209474;23;20100;-78
2022/04/23 12:49:51;;;;;;;6.10;2.90;;;25.70;38.90;;;;;;6209845;23;20025;-79
2022/04/23 12:52:21;;;;;;;10.02;3.30;;;25.50;35.40;;;;;;6211496;23;20020;-77
2022/04/23 12:55:32;;;;;;;15.20;3.53;;;25.60;36.50;;;;;;6179668;23;20017;-79
2022/04/23 12:58:27;;;;;;;5.40;3.03;;;26.00;34.50;;;;;;6154402;23;20098;-79
2022/04/23 13:00:53;;;;;;;7.78;3.00;;;26.50;35.40;;;;;;6127874;23;20028;-80
2022/04/23 13:03:34;;;;;;;6.40;2.80;;;26.40;34.80;;;;;;6155197;23;20017;-78
2022/04/23 13:06:00;;;;;;;6.97;2.92;;;26.40;34.70;;;;;;6155370;23;20029;-79
2022/04/23 13:11:27;;;;;;;6.90;3.70;;;26.40;34.00;;;;;;6152810;23;20025;-80
2022/04/23 13:13:59;;;;;;;10.48;3.20;;;26.90;33.80;;;;;;6132533;23;20055;-79
2022/04/23 13:16:47;;;;;;;10.98;3.08;;;27.40;33.40;;;;;;6157710;23;20032;-80
2022/04/23 13:19:14;;;;;;;8.35;3.17;;;27.30;31.80;;;;;;6131817;23;20168;-79
2022/04/23 13:21:40;;;;;;;7.60;2.97;;;27.40;32.70;;;;;;6205511;23;20021;-79
2022/04/23 13:24:06;;;;;;;4.53;2.50;;;27.90;32.30;;;;;;6156843;23;20040;-76
2022/04/23 13:26:32;;;;;;;6.90;3.00;;;27.60;31.80;;;;;;6162637;23;20020;-78
2022/04/23 13:29:01;;;;;;;8.52;3.00;;;28.40;32.10;;;;;;6211274;23;20056;-79
2022/04/23 13:31:27;;;;;;;6.22;3.20;;;28.90;30.90;;;;;;6188184;23;20033;-78
2022/04/23 13:33:54;;;;;;;9.05;4.25;;;29.00;30.90;;;;;;6188058;23;20495;-79